sensor_id;sensor_type;location;lat;lon;timestamp;temperature;humidity
32839;DHT22;19182;41.820;12.808;2022-12-07T00:01:12;9.50;99.90
32839;DHT22;19182;41.820;12.808;2022-12-07T00:03:39;9.40;99.90
32839;DHT22;19182;41.820;12.808;2022-12-07T00:06:06;9.50;99.90
32839;DHT22;19182;41.820;12.808;2022-12-07T00:08:34;9.40;99.90
32839;DHT22;19182;41.820;12.808;2022-12-07T00:11:08;9.30;99.90
32839;DHT22;19182;41.820;12.808;2022-12-07T00:13:34;9.40;99.90
32839;DHT22;19182;41.820;12.808;2022-12-07T00:16:06;9.40;99.90
32839;DHT22;19182;41.820;12.808;2022-12-07T00:18:32;9.40;99.90
32839;DHT22;19182;41.820;12.808;2022-12-07T00:21:08;9.40;99.90
32839;DHT22;19182;41.820;12.808;2022-12-07T00:23:35;9.30;99.90
32839;DHT22;19182;41.820;12.808;2022-12-07T00:26:09;9.20;99.90
32839;DHT22;19182;41.820;12.808;2022-12-07T00:28:49;9.20;99.90
32839;DHT22;19182;41.820;12.808;2022-12-07T00:31:17;9.10;99.90
32839;DHT22;19182;41.820;12.808;2022-12-07T00:33:43;9.00;99.90
32839;DHT22;19182;41.820;12.808;2022-12-07T00:36:15;9.00;99.90
32839;DHT22;19182;41.820;12.808;2022-12-07T00:38:41;9.00;99.90
32839;DHT22;19182;41.820;12.808;2022-12-07T00:41:17;9.00;99.90
32839;DHT22;19182;41.820;12.808;2022-12-07T00:43:45;9.10;99.90
32839;DHT22;19182;41.820;12.808;2022-12-07T00:46:11;9.20;99.90
32839;DHT22;19182;41.820;12.808;2022-12-07T00:48:37;9.10;99.90
32839;DHT22;19182;41.820;12.808;2022-12-07T00:51:05;9.20;99.90
32839;DHT22;19182;41.820;12.808;2022-12-07T00:53:33;9.10;99.90
32839;DHT22;19182;41.820;12.808;2022-12-07T00:56:14;9.10;99.90
32839;DHT22;19182;41.820;12.808;2022-12-07T00:58:40;9.10;99.90
32839;DHT22;19182;41.820;12.808;2022-12-07T01:01:08;9.00;99.90
32839;DHT22;19182;41.820;12.808;2022-12-07T01:03:34;9.00;99.90
32839;DHT22;19182;41.820;12.808;2022-12-07T01:06:02;8.90;99.90
32839;DHT22;19182;41.820;12.808;2022-12-07T01:08:29;8.80;99.90
32839;DHT22;19182;41.820;12.808;2022-12-07T01:11:06;8.90;99.90
32839;DHT22;19182;41.820;12.808;2022-12-07T01:13:34;8.90;99.90
32839;DHT22;19182;41.820;12.808;2022-12-07T01:16:03;8.90;99.90
32839;DHT22;19182;41.820;12.808;2022-12-07T01:18:30;8.80;99.90
32839;DHT22;19182;41.820;12.808;2022-12-07T01:21:04;8.90;99.90
32839;DHT22;19182;41.820;12.808;2022-12-07T01:23:31;8.80;99.90
32839;DHT22;19182;41.820;12.808;2022-12-07T01:25:59;8.80;99.90
32839;DHT22;19182;41.820;12.808;2022-12-07T01:28:25;8.80;99.90
32839;DHT22;19182;41.820;12.808;2022-12-07T01:31:08;8.80;99.90
32839;DHT22;19182;41.820;12.808;2022-12-07T01:33:37;8.80;99.90
32839;DHT22;19182;41.820;12.808;2022-12-07T01:36:16;8.60;99.90
32839;DHT22;19182;41.820;12.808;2022-12-07T01:38:43;8.60;99.90
32839;DHT22;19182;41.820;12.808;2022-12-07T01:41:10;8.60;99.90
32839;DHT22;19182;41.820;12.808;2022-12-07T01:43:36;8.60;99.90
32839;DHT22;19182;41.820;12.808;2022-12-07T01:46:03;8.70;99.90
32839;DHT22;19182;41.820;12.808;2022-12-07T01:48:39;8.70;99.90
32839;DHT22;19182;41.820;12.808;2022-12-07T01:51:09;8.70;99.90
32839;DHT22;19182;41.820;12.808;2022-12-07T01:53:36;8.80;99.90
32839;DHT22;19182;41.820;12.808;2022-12-07T01:56:04;8.60;99.90
32839;DHT22;19182;41.820;12.808;2022-12-07T01:58:31;8.70;99.90
32839;DHT22;19182;41.820;12.808;2022-12-07T02:00:57;8.70;99.90
32839;DHT22;19182;41.820;12.808;2022-12-07T02:03:42;8.60;99.90
32839;DHT22;19182;41.820;12.808;2022-12-07T02:06:12;8.60;99.90
32839;DHT22;19182;41.820;12.808;2022-12-07T02:08:39;8.50;99.90
32839;DHT22;19182;41.820;12.808;2022-12-07T02:11:09;8.50;99.90
32839;DHT22;19182;41.820;12.808;2022-12-07T02:13:39;8.50;99.90
32839;DHT22;19182;41.820;12.808;2022-12-07T02:16:27;8.50;99.90
32839;DHT22;19182;41.820;12.808;2022-12-07T02:19:15;8.30;99.90
32839;DHT22;19182;41.820;12.808;2022-12-07T02:24:57;8.20;99.90
32839;DHT22;19182;41.820;12.808;2022-12-07T02:27:38;8.20;99.90
32839;DHT22;19182;41.820;12.808;2022-12-07T02:30:17;8.20;99.90
32839;DHT22;19182;41.820;12.808;2022-12-07T02:36:11;8.10;99.90
32839;DHT22;19182;41.820;12.808;2022-12-07T02:39:11;8.10;99.90
32839;DHT22;19182;41.820;12.808;2022-12-07T02:41:55;8.30;99.90
32839;DHT22;19182;41.820;12.808;2022-12-07T02:44:25;8.40;99.90
32839;DHT22;19182;41.820;12.808;2022-12-07T02:46:55;8.50;99.90
32839;DHT22;19182;41.820;12.808;2022-12-07T02:49:23;8.50;99.90
32839;DHT22;19182;41.820;12.808;2022-12-07T02:51:52;8.50;99.90
32839;DHT22;19182;41.820;12.808;2022-12-07T02:54:19;8.50;99.90
32839;DHT22;19182;41.820;12.808;2022-12-07T02:56:53;8.50;99.90
32839;DHT22;19182;41.820;12.808;2022-12-07T03:02:45;8.60;99.90
32839;DHT22;19182;41.820;12.808;2022-12-07T03:13:19;8.50;99.90
32839;DHT22;19182;41.820;12.808;2022-12-07T03:18:29;8.70;99.90
32839;DHT22;19182;41.820;12.808;2022-12-07T03:21:00;8.70;99.90
32839;DHT22;19182;41.820;12.808;2022-12-07T03:23:27;8.90;99.90
32839;DHT22;19182;41.820;12.808;2022-12-07T03:25:58;9.00;99.90
32839;DHT22;19182;41.820;12.808;2022-12-07T03:28:31;9.00;99.90
32839;DHT22;19182;41.820;12.808;2022-12-07T03:31:21;9.10;99.90
32839;DHT22;19182;41.820;12.808;2022-12-07T03:34:15;9.10;99.90
32839;DHT22;19182;41.820;12.808;2022-12-07T03:37:26;9.10;99.90
32839;DHT22;19182;41.820;12.808;2022-12-07T03:39:36;9.10;99.90
32839;DHT22;19182;41.820;12.808;2022-12-07T03:42:05;9.10;99.90
32839;DHT22;19182;41.820;12.808;2022-12-07T03:44:33;9.00;99.90
32839;DHT22;19182;41.820;12.808;2022-12-07T03:47:01;9.00;99.90
32839;DHT22;19182;41.820;12.808;2022-12-07T03:54:52;8.80;99.90
32839;DHT22;19182;41.820;12.808;2022-12-07T03:57:25;8.90;99.90
32839;DHT22;19182;41.820;12.808;2022-12-07T03:59:54;9.00;99.90
32839;DHT22;19182;41.820;12.808;2022-12-07T04:02:22;8.90;99.90
32839;DHT22;19182;41.820;12.808;2022-12-07T04:04:50;8.70;99.90
32839;DHT22;19182;41.820;12.808;2022-12-07T04:07:16;8.60;99.90
32839;DHT22;19182;41.820;12.808;2022-12-07T04:09:42;8.60;99.90
32839;DHT22;19182;41.820;12.808;2022-12-07T04:12:09;8.50;99.90
32839;DHT22;19182;41.820;12.808;2022-12-07T04:14:36;8.50;99.90
32839;DHT22;19182;41.820;12.808;2022-12-07T04:17:02;8.30;99.90
32839;DHT22;19182;41.820;12.808;2022-12-07T04:19:40;8.40;99.90
32839;DHT22;19182;41.820;12.808;2022-12-07T04:22:07;8.40;99.90
32839;DHT22;19182;41.820;12.808;2022-12-07T04:24:33;8.40;99.90
32839;DHT22;19182;41.820;12.808;2022-12-07T04:26:59;8.30;99.90
32839;DHT22;19182;41.820;12.808;2022-12-07T04:29:25;8.20;99.90
32839;DHT22;19182;41.820;12.808;2022-12-07T04:31:52;8.20;99.90
32839;DHT22;19182;41.820;12.808;2022-12-07T04:34:19;8.30;99.90
32839;DHT22;19182;41.820;12.808;2022-12-07T04:36:46;8.30;99.90
32839;DHT22;19182;41.820;12.808;2022-12-07T04:39:27;8.20;99.90
32839;DHT22;19182;41.820;12.808;2022-12-07T04:41:53;8.20;99.90
32839;DHT22;19182;41.820;12.808;2022-12-07T04:44:20;8.40;99.90
32839;DHT22;19182;41.820;12.808;2022-12-07T04:46:46;8.20;99.90
32839;DHT22;19182;41.820;12.808;2022-12-07T04:49:13;8.00;99.90
32839;DHT22;19182;41.820;12.808;2022-12-07T04:51:39;8.00;99.90
32839;DHT22;19182;41.820;12.808;2022-12-07T04:54:05;7.90;99.90
32839;DHT22;19182;41.820;12.808;2022-12-07T04:56:32;7.80;99.90
32839;DHT22;19182;41.820;12.808;2022-12-07T04:58:58;7.80;99.90
32839;DHT22;19182;41.820;12.808;2022-12-07T05:01:24;7.70;99.90
32839;DHT22;19182;41.820;12.808;2022-12-07T05:03:50;7.60;99.90
32839;DHT22;19182;41.820;12.808;2022-12-07T05:06:16;7.50;99.90
32839;DHT22;19182;41.820;12.808;2022-12-07T05:08:42;7.50;99.90
32839;DHT22;19182;41.820;12.808;2022-12-07T05:11:08;7.60;99.90
32839;DHT22;19182;41.820;12.808;2022-12-07T05:13:35;7.70;99.90
32839;DHT22;19182;41.820;12.808;2022-12-07T05:16:02;7.80;99.90
32839;DHT22;19182;41.820;12.808;2022-12-07T05:18:28;7.70;99.90
32839;DHT22;19182;41.820;12.808;2022-12-07T05:20:54;7.70;99.90
32839;DHT22;19182;41.820;12.808;2022-12-07T05:23:20;7.60;99.90
32839;DHT22;19182;41.820;12.808;2022-12-07T05:25:47;7.60;99.90
32839;DHT22;19182;41.820;12.808;2022-12-07T05:28:13;7.60;99.90
32839;DHT22;19182;41.820;12.808;2022-12-07T05:30:39;7.60;99.90
32839;DHT22;19182;41.820;12.808;2022-12-07T05:33:05;7.60;99.90
32839;DHT22;19182;41.820;12.808;2022-12-07T05:35:30;7.40;99.90
32839;DHT22;19182;41.820;12.808;2022-12-07T05:37:56;7.40;99.90
32839;DHT22;19182;41.820;12.808;2022-12-07T05:40:22;7.30;99.90
32839;DHT22;19182;41.820;12.808;2022-12-07T05:42:48;7.50;99.90
32839;DHT22;19182;41.820;12.808;2022-12-07T05:45:14;7.40;99.90
32839;DHT22;19182;41.820;12.808;2022-12-07T05:47:40;7.40;99.90
32839;DHT22;19182;41.820;12.808;2022-12-07T05:50:06;7.40;99.90
32839;DHT22;19182;41.820;12.808;2022-12-07T05:52:33;7.30;99.90
32839;DHT22;19182;41.820;12.808;2022-12-07T05:55:01;7.20;99.90
32839;DHT22;19182;41.820;12.808;2022-12-07T05:57:27;7.20;99.90
32839;DHT22;19182;41.820;12.808;2022-12-07T05:59:53;7.30;99.90
32839;DHT22;19182;41.820;12.808;2022-12-07T06:02:18;7.30;99.90
32839;DHT22;19182;41.820;12.808;2022-12-07T06:04:46;7.10;99.90
32839;DHT22;19182;41.820;12.808;2022-12-07T06:07:13;7.30;99.90
32839;DHT22;19182;41.820;12.808;2022-12-07T06:09:39;7.20;99.90
32839;DHT22;19182;41.820;12.808;2022-12-07T06:12:05;7.20;99.90
32839;DHT22;19182;41.820;12.808;2022-12-07T06:14:51;7.20;99.90
32839;DHT22;19182;41.820;12.808;2022-12-07T06:17:17;7.10;99.90
32839;DHT22;19182;41.820;12.808;2022-12-07T06:19:43;7.00;99.90
32839;DHT22;19182;41.820;12.808;2022-12-07T06:22:10;6.90;99.90
32839;DHT22;19182;41.820;12.808;2022-12-07T06:24:37;6.90;99.90
32839;DHT22;19182;41.820;12.808;2022-12-07T06:27:03;6.90;99.90
32839;DHT22;19182;41.820;12.808;2022-12-07T06:29:31;7.00;99.90
32839;DHT22;19182;41.820;12.808;2022-12-07T06:31:57;7.10;99.90
32839;DHT22;19182;41.820;12.808;2022-12-07T06:34:24;7.20;99.90
32839;DHT22;19182;41.820;12.808;2022-12-07T06:36:52;7.20;99.90
32839;DHT22;19182;41.820;12.808;2022-12-07T06:39:22;7.20;99.90
32839;DHT22;19182;41.820;12.808;2022-12-07T06:41:48;7.30;99.90
32839;DHT22;19182;41.820;12.808;2022-12-07T06:44:16;7.30;99.90
32839;DHT22;19182;41.820;12.808;2022-12-07T06:46:43;7.30;99.90
32839;DHT22;19182;41.820;12.808;2022-12-07T06:49:08;7.30;99.90
32839;DHT22;19182;41.820;12.808;2022-12-07T06:51:34;7.30;99.90
32839;DHT22;19182;41.820;12.808;2022-12-07T06:54:02;7.40;99.90
32839;DHT22;19182;41.820;12.808;2022-12-07T06:56:29;7.50;99.90
32839;DHT22;19182;41.820;12.808;2022-12-07T06:58:54;6.70;99.90
32839;DHT22;19182;41.820;12.808;2022-12-07T07:01:20;7.70;99.90
32839;DHT22;19182;41.820;12.808;2022-12-07T07:03:46;7.70;99.90
32839;DHT22;19182;41.820;12.808;2022-12-07T07:06:12;7.90;99.90
32839;DHT22;19182;41.820;12.808;2022-12-07T07:08:41;8.00;99.90
32839;DHT22;19182;41.820;12.808;2022-12-07T07:11:08;8.10;99.90
32839;DHT22;19182;41.820;12.808;2022-12-07T07:13:34;8.20;99.90
32839;DHT22;19182;41.820;12.808;2022-12-07T07:16:00;8.40;99.90
32839;DHT22;19182;41.820;12.808;2022-12-07T07:18:26;8.70;99.90
32839;DHT22;19182;41.820;12.808;2022-12-07T07:20:52;8.90;99.90
32839;DHT22;19182;41.820;12.808;2022-12-07T07:23:20;8.90;99.90
32839;DHT22;19182;41.820;12.808;2022-12-07T07:25:46;9.00;99.90
32839;DHT22;19182;41.820;12.808;2022-12-07T07:30:38;9.20;99.90
32839;DHT22;19182;41.820;12.808;2022-12-07T07:33:04;9.60;99.90
32839;DHT22;19182;41.820;12.808;2022-12-07T07:35:31;9.60;99.90
32839;DHT22;19182;41.820;12.808;2022-12-07T07:37:59;9.80;99.90
32839;DHT22;19182;41.820;12.808;2022-12-07T07:40:25;10.10;99.90
32839;DHT22;19182;41.820;12.808;2022-12-07T07:42:51;10.30;99.90
32839;DHT22;19182;41.820;12.808;2022-12-07T07:45:19;10.80;99.90
32839;DHT22;19182;41.820;12.808;2022-12-07T07:47:45;11.90;99.90
32839;DHT22;19182;41.820;12.808;2022-12-07T07:50:11;13.00;99.90
32839;DHT22;19182;41.820;12.808;2022-12-07T07:52:36;14.00;99.90
32839;DHT22;19182;41.820;12.808;2022-12-07T07:55:03;15.00;99.90
32839;DHT22;19182;41.820;12.808;2022-12-07T07:57:29;15.60;99.90
32839;DHT22;19182;41.820;12.808;2022-12-07T07:59:54;16.20;99.90
32839;DHT22;19182;41.820;12.808;2022-12-07T08:02:20;16.60;99.90
32839;DHT22;19182;41.820;12.808;2022-12-07T08:04:47;17.50;99.90
32839;DHT22;19182;41.820;12.808;2022-12-07T08:07:14;17.30;99.90
32839;DHT22;19182;41.820;12.808;2022-12-07T08:09:40;18.00;99.90
32839;DHT22;19182;41.820;12.808;2022-12-07T08:12:06;18.30;99.90
32839;DHT22;19182;41.820;12.808;2022-12-07T08:14:32;19.10;99.90
32839;DHT22;19182;41.820;12.808;2022-12-07T08:16:58;19.10;99.90
32839;DHT22;19182;41.820;12.808;2022-12-07T08:19:24;19.30;99.90
32839;DHT22;19182;41.820;12.808;2022-12-07T08:21:50;19.40;99.90
32839;DHT22;19182;41.820;12.808;2022-12-07T08:24:16;19.20;99.90
32839;DHT22;19182;41.820;12.808;2022-12-07T08:26:42;19.30;99.90
32839;DHT22;19182;41.820;12.808;2022-12-07T08:29:07;19.40;99.90
32839;DHT22;19182;41.820;12.808;2022-12-07T08:31:34;19.30;99.90
32839;DHT22;19182;41.820;12.808;2022-12-07T08:34:00;19.60;99.90
32839;DHT22;19182;41.820;12.808;2022-12-07T08:36:26;19.50;99.90
32839;DHT22;19182;41.820;12.808;2022-12-07T08:38:52;19.50;99.90
32839;DHT22;19182;41.820;12.808;2022-12-07T08:41:18;19.20;99.90
32839;DHT22;19182;41.820;12.808;2022-12-07T08:43:44;19.70;99.90
32839;DHT22;19182;41.820;12.808;2022-12-07T08:48:52;19.50;99.90
32839;DHT22;19182;41.820;12.808;2022-12-07T08:51:19;20.10;99.90
32839;DHT22;19182;41.820;12.808;2022-12-07T08:53:47;20.40;99.90
32839;DHT22;19182;41.820;12.808;2022-12-07T08:56:13;19.90;99.90
32839;DHT22;19182;41.820;12.808;2022-12-07T08:58:39;20.70;99.90
32839;DHT22;19182;41.820;12.808;2022-12-07T09:01:08;20.50;99.90
32839;DHT22;19182;41.820;12.808;2022-12-07T09:03:34;20.20;99.90
32839;DHT22;19182;41.820;12.808;2022-12-07T09:06:01;20.60;99.90
32839;DHT22;19182;41.820;12.808;2022-12-07T09:08:34;21.00;99.90
32839;DHT22;19182;41.820;12.808;2022-12-07T09:11:02;20.90;99.90
32839;DHT22;19182;41.820;12.808;2022-12-07T09:13:28;20.80;99.90
32839;DHT22;19182;41.820;12.808;2022-12-07T09:15:54;19.20;99.90
32839;DHT22;19182;41.820;12.808;2022-12-07T09:18:19;18.30;99.90
32839;DHT22;19182;41.820;12.808;2022-12-07T09:20:45;19.20;99.90
32839;DHT22;19182;41.820;12.808;2022-12-07T09:23:10;19.60;99.90
32839;DHT22;19182;41.820;12.808;2022-12-07T09:25:37;20.90;99.90
32839;DHT22;19182;41.820;12.808;2022-12-07T09:28:03;21.70;99.90
32839;DHT22;19182;41.820;12.808;2022-12-07T09:30:28;22.70;99.90
32839;DHT22;19182;41.820;12.808;2022-12-07T09:32:59;23.20;99.90
32839;DHT22;19182;41.820;12.808;2022-12-07T09:35:25;23.90;99.90
32839;DHT22;19182;41.820;12.808;2022-12-07T09:37:52;23.70;99.90
32839;DHT22;19182;41.820;12.808;2022-12-07T09:40:20;24.80;99.90
32839;DHT22;19182;41.820;12.808;2022-12-07T09:42:52;26.70;99.90
32839;DHT22;19182;41.820;12.808;2022-12-07T09:45:28;27.50;96.30
32839;DHT22;19182;41.820;12.808;2022-12-07T09:47:55;27.70;93.40
32839;DHT22;19182;41.820;12.808;2022-12-07T09:50:26;26.50;94.00
32839;DHT22;19182;41.820;12.808;2022-12-07T09:52:55;27.40;93.90
32839;DHT22;19182;41.820;12.808;2022-12-07T09:55:28;27.70;92.20
32839;DHT22;19182;41.820;12.808;2022-12-07T09:57:58;27.90;90.60
32839;DHT22;19182;41.820;12.808;2022-12-07T10:00:24;27.70;90.00
32839;DHT22;19182;41.820;12.808;2022-12-07T10:02:56;27.40;90.30
32839;DHT22;19182;41.820;12.808;2022-12-07T10:05:29;26.80;90.50
32839;DHT22;19182;41.820;12.808;2022-12-07T10:07:56;27.20;91.40
32839;DHT22;19182;41.820;12.808;2022-12-07T10:10:34;27.30;90.80
32839;DHT22;19182;41.820;12.808;2022-12-07T10:16:01;28.90;86.90
32839;DHT22;19182;41.820;12.808;2022-12-07T10:18:41;29.70;83.50
32839;DHT22;19182;41.820;12.808;2022-12-07T10:21:19;29.40;81.70
32839;DHT22;19182;41.820;12.808;2022-12-07T10:24:05;29.80;83.00
32839;DHT22;19182;41.820;12.808;2022-12-07T10:26:36;30.10;80.30
32839;DHT22;19182;41.820;12.808;2022-12-07T10:29:54;30.00;79.90
32839;DHT22;19182;41.820;12.808;2022-12-07T10:32:36;29.00;78.80
32839;DHT22;19182;41.820;12.808;2022-12-07T10:37:47;28.70;79.60
32839;DHT22;19182;41.820;12.808;2022-12-07T10:40:33;29.80;77.10
32839;DHT22;19182;41.820;12.808;2022-12-07T10:43:18;30.10;76.80
32839;DHT22;19182;41.820;12.808;2022-12-07T10:46:05;29.50;77.20
32839;DHT22;19182;41.820;12.808;2022-12-07T10:59:54;27.30;85.00
32839;DHT22;19182;41.820;12.808;2022-12-07T11:03:05;27.90;84.20
32839;DHT22;19182;41.820;12.808;2022-12-07T11:05:39;28.10;82.60
32839;DHT22;19182;41.820;12.808;2022-12-07T11:21:48;26.00;91.60
32839;DHT22;19182;41.820;12.808;2022-12-07T11:32:20;25.00;93.90
32839;DHT22;19182;41.820;12.808;2022-12-07T11:37:34;28.60;90.40
32839;DHT22;19182;41.820;12.808;2022-12-07T11:40:21;28.40;87.80
32839;DHT22;19182;41.820;12.808;2022-12-07T11:43:04;27.30;90.00
32839;DHT22;19182;41.820;12.808;2022-12-07T11:45:37;25.40;92.40
32839;DHT22;19182;41.820;12.808;2022-12-07T11:48:15;23.70;94.90
32839;DHT22;19182;41.820;12.808;2022-12-07T11:50:54;22.40;98.10
32839;DHT22;19182;41.820;12.808;2022-12-07T11:53:25;21.20;99.90
32839;DHT22;19182;41.820;12.808;2022-12-07T11:56:11;20.20;99.90
32839;DHT22;19182;41.820;12.808;2022-12-07T12:06:37;19.10;99.90
32839;DHT22;19182;41.820;12.808;2022-12-07T12:09:13;19.00;99.90
32839;DHT22;19182;41.820;12.808;2022-12-07T12:17:17;21.00;99.90
32839;DHT22;19182;41.820;12.808;2022-12-07T12:23:00;20.20;99.90
32839;DHT22;19182;41.820;12.808;2022-12-07T12:25:36;19.70;99.90
32839;DHT22;19182;41.820;12.808;2022-12-07T12:28:04;20.80;99.90
32839;DHT22;19182;41.820;12.808;2022-12-07T12:30:36;19.20;99.90
32839;DHT22;19182;41.820;12.808;2022-12-07T12:33:05;18.90;99.90
32839;DHT22;19182;41.820;12.808;2022-12-07T12:35:36;18.50;99.90
32839;DHT22;19182;41.820;12.808;2022-12-07T12:38:29;18.10;99.90
32839;DHT22;19182;41.820;12.808;2022-12-07T12:40:56;18.10;99.90
32839;DHT22;19182;41.820;12.808;2022-12-07T12:43:44;18.30;99.90
32839;DHT22;19182;41.820;12.808;2022-12-07T12:51:45;17.80;99.90
32839;DHT22;19182;41.820;12.808;2022-12-07T12:54:19;17.50;99.90
32839;DHT22;19182;41.820;12.808;2022-12-07T12:59:32;17.40;99.90
32839;DHT22;19182;41.820;12.808;2022-12-07T13:02:29;17.20;99.90
32839;DHT22;19182;41.820;12.808;2022-12-07T13:15:39;16.80;99.90
32839;DHT22;19182;41.820;12.808;2022-12-07T13:24:08;16.60;99.90
32839;DHT22;19182;41.820;12.808;2022-12-07T13:34:34;16.30;99.90
32839;DHT22;19182;41.820;12.808;2022-12-07T13:37:10;16.20;99.90
32839;DHT22;19182;41.820;12.808;2022-12-07T13:39:49;16.30;99.90
32839;DHT22;19182;41.820;12.808;2022-12-07T13:42:34;16.40;99.90
32839;DHT22;19182;41.820;12.808;2022-12-07T13:45:25;16.40;99.90
32839;DHT22;19182;41.820;12.808;2022-12-07T13:48:19;16.40;99.90
32839;DHT22;19182;41.820;12.808;2022-12-07T14:08:30;16.10;99.90
32839;DHT22;19182;41.820;12.808;2022-12-07T14:10:58;15.90;99.90
32839;DHT22;19182;41.820;12.808;2022-12-07T14:15:53;15.70;99.90
32839;DHT22;19182;41.820;12.808;2022-12-07T14:18:31;15.70;99.90
32839;DHT22;19182;41.820;12.808;2022-12-07T14:23:37;15.60;99.90
32839;DHT22;19182;41.820;12.808;2022-12-07T14:26:14;15.60;99.90
32839;DHT22;19182;41.820;12.808;2022-12-07T14:28:41;15.50;99.90
32839;DHT22;19182;41.820;12.808;2022-12-07T14:31:13;15.50;99.90
32839;DHT22;19182;41.820;12.808;2022-12-07T14:33:39;15.50;99.90
32839;DHT22;19182;41.820;12.808;2022-12-07T14:36:06;15.60;99.90
32839;DHT22;19182;41.820;12.808;2022-12-07T14:38:34;15.50;99.90
32839;DHT22;19182;41.820;12.808;2022-12-07T14:40:59;15.50;99.90
32839;DHT22;19182;41.820;12.808;2022-12-07T14:43:45;15.50;99.90
32839;DHT22;19182;41.820;12.808;2022-12-07T14:46:11;15.40;99.90
32839;DHT22;19182;41.820;12.808;2022-12-07T14:48:37;15.30;99.90
32839;DHT22;19182;41.820;12.808;2022-12-07T14:51:04;15.30;99.90
32839;DHT22;19182;41.820;12.808;2022-12-07T14:53:34;15.30;99.90
32839;DHT22;19182;41.820;12.808;2022-12-07T14:56:01;15.30;99.90
32839;DHT22;19182;41.820;12.808;2022-12-07T14:58:27;15.30;99.90
32839;DHT22;19182;41.820;12.808;2022-12-07T15:00:52;15.20;99.90
32839;DHT22;19182;41.820;12.808;2022-12-07T15:03:18;15.20;99.90
32839;DHT22;19182;41.820;12.808;2022-12-07T15:05:44;15.10;99.90
32839;DHT22;19182;41.820;12.808;2022-12-07T15:08:12;15.10;99.90
32839;DHT22;19182;41.820;12.808;2022-12-07T15:10:38;15.10;99.90
32839;DHT22;19182;41.820;12.808;2022-12-07T15:13:06;15.00;99.90
32839;DHT22;19182;41.820;12.808;2022-12-07T15:15:51;14.90;99.90
32839;DHT22;19182;41.820;12.808;2022-12-07T15:18:18;14.60;99.90
32839;DHT22;19182;41.820;12.808;2022-12-07T15:20:45;14.60;99.90
32839;DHT22;19182;41.820;12.808;2022-12-07T15:23:11;14.70;99.90
32839;DHT22;19182;41.820;12.808;2022-12-07T15:25:39;14.60;99.90
32839;DHT22;19182;41.820;12.808;2022-12-07T15:28:05;14.50;99.90
32839;DHT22;19182;41.820;12.808;2022-12-07T15:30:31;14.30;99.90
32839;DHT22;19182;41.820;12.808;2022-12-07T15:32:57;14.20;99.90
32839;DHT22;19182;41.820;12.808;2022-12-07T15:35:22;14.00;99.90
32839;DHT22;19182;41.820;12.808;2022-12-07T15:37:48;13.80;99.90
32839;DHT22;19182;41.820;12.808;2022-12-07T15:40:14;13.80;99.90
32839;DHT22;19182;41.820;12.808;2022-12-07T15:42:40;13.60;99.90
32839;DHT22;19182;41.820;12.808;2022-12-07T15:45:07;13.60;99.90
32839;DHT22;19182;41.820;12.808;2022-12-07T15:47:39;13.30;99.90
32839;DHT22;19182;41.820;12.808;2022-12-07T15:50:11;13.10;99.90
32839;DHT22;19182;41.820;12.808;2022-12-07T15:52:37;13.10;99.90
32839;DHT22;19182;41.820;12.808;2022-12-07T15:55:04;12.90;99.90
32839;DHT22;19182;41.820;12.808;2022-12-07T15:57:34;12.80;99.90
32839;DHT22;19182;41.820;12.808;2022-12-07T16:00:03;12.70;99.90
32839;DHT22;19182;41.820;12.808;2022-12-07T16:02:29;12.60;99.90
32839;DHT22;19182;41.820;12.808;2022-12-07T16:04:55;12.60;99.90
32839;DHT22;19182;41.820;12.808;2022-12-07T16:07:21;12.50;99.90
32839;DHT22;19182;41.820;12.808;2022-12-07T16:09:47;12.50;99.90
32839;DHT22;19182;41.820;12.808;2022-12-07T16:12:15;12.40;99.90
32839;DHT22;19182;41.820;12.808;2022-12-07T16:14:41;12.30;99.90
32839;DHT22;19182;41.820;12.808;2022-12-07T16:17:08;12.20;99.90
32839;DHT22;19182;41.820;12.808;2022-12-07T16:19:35;12.10;99.90
32839;DHT22;19182;41.820;12.808;2022-12-07T16:22:01;12.00;99.90
32839;DHT22;19182;41.820;12.808;2022-12-07T16:24:27;12.10;99.90
32839;DHT22;19182;41.820;12.808;2022-12-07T16:26:53;12.00;99.90
32839;DHT22;19182;41.820;12.808;2022-12-07T16:29:21;11.90;99.90
32839;DHT22;19182;41.820;12.808;2022-12-07T16:31:47;11.70;99.90
32839;DHT22;19182;41.820;12.808;2022-12-07T16:34:13;11.80;99.90
32839;DHT22;19182;41.820;12.808;2022-12-07T16:36:39;11.80;99.90
32839;DHT22;19182;41.820;12.808;2022-12-07T16:39:06;11.70;99.90
32839;DHT22;19182;41.820;12.808;2022-12-07T16:41:32;11.60;99.90
32839;DHT22;19182;41.820;12.808;2022-12-07T16:44:04;11.60;99.90
32839;DHT22;19182;41.820;12.808;2022-12-07T16:46:32;11.60;99.90
32839;DHT22;19182;41.820;12.808;2022-12-07T16:48:59;11.60;99.90
32839;DHT22;19182;41.820;12.808;2022-12-07T16:51:24;11.60;99.90
32839;DHT22;19182;41.820;12.808;2022-12-07T16:53:52;11.50;99.90
32839;DHT22;19182;41.820;12.808;2022-12-07T16:56:18;11.50;99.90
32839;DHT22;19182;41.820;12.808;2022-12-07T16:58:44;11.40;99.90
32839;DHT22;19182;41.820;12.808;2022-12-07T17:01:17;11.30;99.90
32839;DHT22;19182;41.820;12.808;2022-12-07T17:03:44;11.30;99.90
32839;DHT22;19182;41.820;12.808;2022-12-07T17:06:18;11.30;99.90
32839;DHT22;19182;41.820;12.808;2022-12-07T17:08:44;11.30;99.90
32839;DHT22;19182;41.820;12.808;2022-12-07T17:11:17;11.00;99.90
32839;DHT22;19182;41.820;12.808;2022-12-07T17:13:43;10.90;99.90
32839;DHT22;19182;41.820;12.808;2022-12-07T17:16:38;11.00;99.90
32839;DHT22;19182;41.820;12.808;2022-12-07T17:19:05;11.00;99.90
32839;DHT22;19182;41.820;12.808;2022-12-07T17:21:31;11.10;99.90
32839;DHT22;19182;41.820;12.808;2022-12-07T17:24:01;11.20;99.90
32839;DHT22;19182;41.820;12.808;2022-12-07T17:26:28;11.20;99.90
32839;DHT22;19182;41.820;12.808;2022-12-07T17:28:54;11.20;99.90
32839;DHT22;19182;41.820;12.808;2022-12-07T17:31:22;11.30;99.90
32839;DHT22;19182;41.820;12.808;2022-12-07T17:33:48;11.50;99.90
32839;DHT22;19182;41.820;12.808;2022-12-07T17:36:27;11.70;99.90
32839;DHT22;19182;41.820;12.808;2022-12-07T17:38:54;11.90;99.90
32839;DHT22;19182;41.820;12.808;2022-12-07T17:41:22;11.90;99.90
32839;DHT22;19182;41.820;12.808;2022-12-07T17:44:09;12.00;99.90
32839;DHT22;19182;41.820;12.808;2022-12-07T17:46:36;12.10;99.90
32839;DHT22;19182;41.820;12.808;2022-12-07T17:49:03;12.20;99.90
32839;DHT22;19182;41.820;12.808;2022-12-07T17:51:30;12.30;99.90
32839;DHT22;19182;41.820;12.808;2022-12-07T17:54:15;12.30;99.90
32839;DHT22;19182;41.820;12.808;2022-12-07T17:56:41;12.40;99.90
32839;DHT22;19182;41.820;12.808;2022-12-07T17:59:07;12.50;99.90
32839;DHT22;19182;41.820;12.808;2022-12-07T18:01:34;12.50;99.90
32839;DHT22;19182;41.820;12.808;2022-12-07T18:04:00;12.50;99.90